sensor_id;sensor_type;location;lat;lon;timestamp;pressure;altitude;pressure_sealevel;temperature
8937;BMP180;4503;47.810;13.072;2022-08-20T00:02:20;96493.00;;;23.20
8937;BMP180;4503;47.810;13.072;2022-08-20T00:04:46;96489.00;;;23.20
8937;BMP180;4503;47.810;13.072;2022-08-20T00:07:14;96491.00;;;23.20
8937;BMP180;4503;47.810;13.072;2022-08-20T00:09:41;96491.00;;;23.10
8937;BMP180;4503;47.810;13.072;2022-08-20T00:12:09;96500.00;;;23.10
8937;BMP180;4503;47.810;13.072;2022-08-20T00:14:36;96484.00;;;23.10
8937;BMP180;4503;47.810;13.072;2022-08-20T00:17:04;96491.00;;;23.10
8937;BMP180;4503;47.810;13.072;2022-08-20T00:19:30;96498.00;;;23.10
8937;BMP180;4503;47.810;13.072;2022-08-20T00:21:57;96503.00;;;23.20
8937;BMP180;4503;47.810;13.072;2022-08-20T00:24:23;96490.00;;;23.20
8937;BMP180;4503;47.810;13.072;2022-08-20T00:26:50;96510.00;;;23.30
8937;BMP180;4503;47.810;13.072;2022-08-20T00:29:16;96500.00;;;23.30
8937;BMP180;4503;47.810;13.072;2022-08-20T00:31:42;96505.00;;;23.30
8937;BMP180;4503;47.810;13.072;2022-08-20T00:34:08;96508.00;;;23.30
8937;BMP180;4503;47.810;13.072;2022-08-20T00:36:34;96506.00;;;23.30
8937;BMP180;4503;47.810;13.072;2022-08-20T00:39:00;96507.00;;;23.30
8937;BMP180;4503;47.810;13.072;2022-08-20T00:45:01;96504.00;;;23.30
8937;BMP180;4503;47.810;13.072;2022-08-20T00:47:27;96499.00;;;23.30
8937;BMP180;4503;47.810;13.072;2022-08-20T00:49:52;96497.00;;;23.40
8937;BMP180;4503;47.810;13.072;2022-08-20T00:52:19;96498.00;;;23.40
8937;BMP180;4503;47.810;13.072;2022-08-20T00:54:53;96492.00;;;23.40
8937;BMP180;4503;47.810;13.072;2022-08-20T00:57:34;96500.00;;;23.50
8937;BMP180;4503;47.810;13.072;2022-08-20T01:00:07;96491.00;;;23.50
8937;BMP180;4503;47.810;13.072;2022-08-20T01:02:35;96497.00;;;23.60
8937;BMP180;4503;47.810;13.072;2022-08-20T01:05:02;96500.00;;;23.60
8937;BMP180;4503;47.810;13.072;2022-08-20T01:07:29;96508.00;;;23.60
8937;BMP180;4503;47.810;13.072;2022-08-20T01:10:10;96503.00;;;23.60
8937;BMP180;4503;47.810;13.072;2022-08-20T01:12:40;96510.00;;;23.70
8937;BMP180;4503;47.810;13.072;2022-08-20T01:15:10;96510.00;;;23.70
8937;BMP180;4503;47.810;13.072;2022-08-20T01:17:47;96514.00;;;23.80
8937;BMP180;4503;47.810;13.072;2022-08-20T01:20:22;96518.00;;;23.80
8937;BMP180;4503;47.810;13.072;2022-08-20T01:26:20;96520.00;;;23.60
8937;BMP180;4503;47.810;13.072;2022-08-20T01:28:51;96508.00;;;23.50
8937;BMP180;4503;47.810;13.072;2022-08-20T01:31:22;96507.00;;;23.40
8937;BMP180;4503;47.810;13.072;2022-08-20T01:33:51;96515.00;;;23.30
8937;BMP180;4503;47.810;13.072;2022-08-20T01:36:24;96505.00;;;23.20
8937;BMP180;4503;47.810;13.072;2022-08-20T01:38:50;96517.00;;;23.20
8937;BMP180;4503;47.810;13.072;2022-08-20T01:44:20;96532.00;;;23.20
8937;BMP180;4503;47.810;13.072;2022-08-20T01:46:49;96525.00;;;23.10
8937;BMP180;4503;47.810;13.072;2022-08-20T01:49:24;96534.00;;;23.10
8937;BMP180;4503;47.810;13.072;2022-08-20T01:51:55;96529.00;;;23.10
8937;BMP180;4503;47.810;13.072;2022-08-20T01:54:23;96531.00;;;23.10
8937;BMP180;4503;47.810;13.072;2022-08-20T01:56:59;96528.00;;;23.10
8937;BMP180;4503;47.810;13.072;2022-08-20T01:59:27;96537.00;;;23.10
8937;BMP180;4503;47.810;13.072;2022-08-20T02:01:54;96536.00;;;23.10
8937;BMP180;4503;47.810;13.072;2022-08-20T02:04:21;96539.00;;;23.20
8937;BMP180;4503;47.810;13.072;2022-08-20T02:06:57;96533.00;;;23.20
8937;BMP180;4503;47.810;13.072;2022-08-20T02:09:33;96530.00;;;23.30
8937;BMP180;4503;47.810;13.072;2022-08-20T02:11:59;96526.00;;;23.30
8937;BMP180;4503;47.810;13.072;2022-08-20T02:14:29;96528.00;;;23.30
8937;BMP180;4503;47.810;13.072;2022-08-20T02:16:56;96526.00;;;23.30
8937;BMP180;4503;47.810;13.072;2022-08-20T02:19:33;96521.00;;;23.30
8937;BMP180;4503;47.810;13.072;2022-08-20T02:25:34;96534.00;;;23.30
8937;BMP180;4503;47.810;13.072;2022-08-20T02:28:06;96527.00;;;23.40
8937;BMP180;4503;47.810;13.072;2022-08-20T02:30:41;96529.00;;;23.40
8937;BMP180;4503;47.810;13.072;2022-08-20T02:33:11;96530.00;;;23.40
8937;BMP180;4503;47.810;13.072;2022-08-20T02:35:41;96529.00;;;23.40
8937;BMP180;4503;47.810;13.072;2022-08-20T02:38:09;96533.00;;;23.40
8937;BMP180;4503;47.810;13.072;2022-08-20T02:40:35;96537.00;;;23.40
8937;BMP180;4503;47.810;13.072;2022-08-20T02:43:03;96527.00;;;23.40
8937;BMP180;4503;47.810;13.072;2022-08-20T02:45:32;96531.00;;;23.40
8937;BMP180;4503;47.810;13.072;2022-08-20T02:48:03;96532.00;;;23.40
8937;BMP180;4503;47.810;13.072;2022-08-20T02:50:29;96525.00;;;23.40
8937;BMP180;4503;47.810;13.072;2022-08-20T02:52:56;96527.00;;;23.30
8937;BMP180;4503;47.810;13.072;2022-08-20T02:55:22;96520.00;;;23.20
8937;BMP180;4503;47.810;13.072;2022-08-20T02:57:52;96528.00;;;23.10
8937;BMP180;4503;47.810;13.072;2022-08-20T03:00:20;96515.00;;;23.10
8937;BMP180;4503;47.810;13.072;2022-08-20T03:02:47;96526.00;;;23.00
8937;BMP180;4503;47.810;13.072;2022-08-20T03:05:13;96528.00;;;23.00
8937;BMP180;4503;47.810;13.072;2022-08-20T03:07:51;96532.00;;;23.00
8937;BMP180;4503;47.810;13.072;2022-08-20T03:10:29;96532.00;;;22.90
8937;BMP180;4503;47.810;13.072;2022-08-20T03:12:57;96537.00;;;22.80
8937;BMP180;4503;47.810;13.072;2022-08-20T03:15:24;96531.00;;;22.80
8937;BMP180;4503;47.810;13.072;2022-08-20T03:17:50;96531.00;;;22.80
8937;BMP180;4503;47.810;13.072;2022-08-20T03:20:17;96531.00;;;22.80
8937;BMP180;4503;47.810;13.072;2022-08-20T03:22:43;96530.00;;;22.90
8937;BMP180;4503;47.810;13.072;2022-08-20T03:25:09;96529.00;;;22.90
8937;BMP180;4503;47.810;13.072;2022-08-20T03:27:36;96533.00;;;23.00
8937;BMP180;4503;47.810;13.072;2022-08-20T03:30:07;96527.00;;;23.00
8937;BMP180;4503;47.810;13.072;2022-08-20T03:32:34;96535.00;;;23.10
8937;BMP180;4503;47.810;13.072;2022-08-20T03:35:00;96541.00;;;23.20
8937;BMP180;4503;47.810;13.072;2022-08-20T03:37:34;96548.00;;;23.20
8937;BMP180;4503;47.810;13.072;2022-08-20T03:40:04;96544.00;;;23.20
8937;BMP180;4503;47.810;13.072;2022-08-20T03:42:30;96542.00;;;23.30
8937;BMP180;4503;47.810;13.072;2022-08-20T03:44:56;96550.00;;;23.30
8937;BMP180;4503;47.810;13.072;2022-08-20T03:47:23;96549.00;;;23.30
8937;BMP180;4503;47.810;13.072;2022-08-20T03:49:50;96551.00;;;23.30
8937;BMP180;4503;47.810;13.072;2022-08-20T03:52:16;96557.00;;;23.30
8937;BMP180;4503;47.810;13.072;2022-08-20T03:54:43;96560.00;;;23.30
8937;BMP180;4503;47.810;13.072;2022-08-20T03:57:15;96560.00;;;23.30
8937;BMP180;4503;47.810;13.072;2022-08-20T03:59:42;96560.00;;;23.30
8937;BMP180;4503;47.810;13.072;2022-08-20T04:02:10;96557.00;;;23.20
8937;BMP180;4503;47.810;13.072;2022-08-20T04:04:38;96560.00;;;23.20
8937;BMP180;4503;47.810;13.072;2022-08-20T04:07:18;96559.00;;;23.20
8937;BMP180;4503;47.810;13.072;2022-08-20T04:09:51;96557.00;;;23.20
8937;BMP180;4503;47.810;13.072;2022-08-20T04:12:18;96559.00;;;23.20
8937;BMP180;4503;47.810;13.072;2022-08-20T04:14:44;96550.00;;;23.20
8937;BMP180;4503;47.810;13.072;2022-08-20T04:17:12;96560.00;;;23.20
8937;BMP180;4503;47.810;13.072;2022-08-20T04:19:40;96563.00;;;23.30
8937;BMP180;4503;47.810;13.072;2022-08-20T04:22:06;96568.00;;;23.30
8937;BMP180;4503;47.810;13.072;2022-08-20T04:24:33;96566.00;;;23.20
8937;BMP180;4503;47.810;13.072;2022-08-20T04:27:01;96563.00;;;23.20
8937;BMP180;4503;47.810;13.072;2022-08-20T04:29:28;96581.00;;;23.20
8937;BMP180;4503;47.810;13.072;2022-08-20T04:31:54;96579.00;;;23.20
8937;BMP180;4503;47.810;13.072;2022-08-20T04:34:20;96586.00;;;23.20
8937;BMP180;4503;47.810;13.072;2022-08-20T04:36:47;96586.00;;;23.20
8937;BMP180;4503;47.810;13.072;2022-08-20T04:39:14;96594.00;;;23.30
8937;BMP180;4503;47.810;13.072;2022-08-20T04:41:41;96591.00;;;23.30
8937;BMP180;4503;47.810;13.072;2022-08-20T04:44:09;96591.00;;;23.30
8937;BMP180;4503;47.810;13.072;2022-08-20T04:46:37;96587.00;;;23.30
8937;BMP180;4503;47.810;13.072;2022-08-20T04:49:05;96593.00;;;23.30
8937;BMP180;4503;47.810;13.072;2022-08-20T04:51:32;96585.00;;;23.40
8937;BMP180;4503;47.810;13.072;2022-08-20T04:53:59;96592.00;;;23.30
8937;BMP180;4503;47.810;13.072;2022-08-20T04:56:31;96592.00;;;23.40
8937;BMP180;4503;47.810;13.072;2022-08-20T04:59:00;96601.00;;;23.40
8937;BMP180;4503;47.810;13.072;2022-08-20T05:01:26;96602.00;;;23.40
8937;BMP180;4503;47.810;13.072;2022-08-20T05:03:54;96602.00;;;23.40
8937;BMP180;4503;47.810;13.072;2022-08-20T05:06:23;96608.00;;;23.40
8937;BMP180;4503;47.810;13.072;2022-08-20T05:08:51;96603.00;;;23.40
8937;BMP180;4503;47.810;13.072;2022-08-20T05:11:17;96611.00;;;23.30
8937;BMP180;4503;47.810;13.072;2022-08-20T05:13:46;96613.00;;;23.10
8937;BMP180;4503;47.810;13.072;2022-08-20T05:16:13;96608.00;;;23.00
8937;BMP180;4503;47.810;13.072;2022-08-20T05:18:40;96617.00;;;22.80
8937;BMP180;4503;47.810;13.072;2022-08-20T05:21:06;96619.00;;;22.70
8937;BMP180;4503;47.810;13.072;2022-08-20T05:23:37;96616.00;;;22.60
8937;BMP180;4503;47.810;13.072;2022-08-20T05:26:09;96629.00;;;22.50
8937;BMP180;4503;47.810;13.072;2022-08-20T05:28:38;96630.00;;;22.40
8937;BMP180;4503;47.810;13.072;2022-08-20T05:31:07;96641.00;;;22.30
8937;BMP180;4503;47.810;13.072;2022-08-20T05:33:36;96649.00;;;22.20
8937;BMP180;4503;47.810;13.072;2022-08-20T05:36:05;96638.00;;;22.10
8937;BMP180;4503;47.810;13.072;2022-08-20T05:38:33;96648.00;;;22.10
8937;BMP180;4503;47.810;13.072;2022-08-20T05:40:59;96641.00;;;22.00
8937;BMP180;4503;47.810;13.072;2022-08-20T05:43:26;96642.00;;;22.00
8937;BMP180;4503;47.810;13.072;2022-08-20T05:45:52;96644.00;;;22.00
8937;BMP180;4503;47.810;13.072;2022-08-20T05:48:22;96641.00;;;21.90
8937;BMP180;4503;47.810;13.072;2022-08-20T05:50:51;96645.00;;;22.00
8937;BMP180;4503;47.810;13.072;2022-08-20T05:53:20;96646.00;;;22.10
8937;BMP180;4503;47.810;13.072;2022-08-20T05:55:47;96642.00;;;22.20
8937;BMP180;4503;47.810;13.072;2022-08-20T05:58:24;96639.00;;;22.20
8937;BMP180;4503;47.810;13.072;2022-08-20T06:00:52;96631.00;;;22.30
8937;BMP180;4503;47.810;13.072;2022-08-20T06:03:18;96636.00;;;22.30
8937;BMP180;4503;47.810;13.072;2022-08-20T06:06:04;96627.00;;;22.40
8937;BMP180;4503;47.810;13.072;2022-08-20T06:08:31;96633.00;;;22.40
8937;BMP180;4503;47.810;13.072;2022-08-20T06:10:57;96632.00;;;22.50
8937;BMP180;4503;47.810;13.072;2022-08-20T06:13:23;96634.00;;;22.60
8937;BMP180;4503;47.810;13.072;2022-08-20T06:15:49;96629.00;;;22.60
8937;BMP180;4503;47.810;13.072;2022-08-20T06:18:15;96624.00;;;22.70
8937;BMP180;4503;47.810;13.072;2022-08-20T06:20:41;96629.00;;;22.70
8937;BMP180;4503;47.810;13.072;2022-08-20T06:23:07;96624.00;;;22.80
8937;BMP180;4503;47.810;13.072;2022-08-20T06:25:34;96632.00;;;22.80
8937;BMP180;4503;47.810;13.072;2022-08-20T06:28:02;96636.00;;;22.80
8937;BMP180;4503;47.810;13.072;2022-08-20T06:30:29;96640.00;;;22.80
8937;BMP180;4503;47.810;13.072;2022-08-20T06:32:55;96640.00;;;22.70
8937;BMP180;4503;47.810;13.072;2022-08-20T06:35:21;96646.00;;;22.80
8937;BMP180;4503;47.810;13.072;2022-08-20T06:37:47;96641.00;;;22.80
8937;BMP180;4503;47.810;13.072;2022-08-20T06:40:19;96643.00;;;22.80
8937;BMP180;4503;47.810;13.072;2022-08-20T06:42:46;96642.00;;;22.80
8937;BMP180;4503;47.810;13.072;2022-08-20T06:45:16;96651.00;;;22.80
8937;BMP180;4503;47.810;13.072;2022-08-20T06:47:44;96643.00;;;22.80
8937;BMP180;4503;47.810;13.072;2022-08-20T06:50:19;96651.00;;;22.70
8937;BMP180;4503;47.810;13.072;2022-08-20T06:52:45;96649.00;;;22.60
8937;BMP180;4503;47.810;13.072;2022-08-20T06:55:14;96654.00;;;22.60
8937;BMP180;4503;47.810;13.072;2022-08-20T06:57:41;96655.00;;;22.50
8937;BMP180;4503;47.810;13.072;2022-08-20T07:00:13;96660.00;;;22.30
8937;BMP180;4503;47.810;13.072;2022-08-20T07:02:40;96639.00;;;22.30
8937;BMP180;4503;47.810;13.072;2022-08-20T07:05:07;96638.00;;;22.30
8937;BMP180;4503;47.810;13.072;2022-08-20T07:07:33;96656.00;;;22.30
8937;BMP180;4503;47.810;13.072;2022-08-20T07:10:11;96656.00;;;22.30
8937;BMP180;4503;47.810;13.072;2022-08-20T07:12:37;96658.00;;;22.30
8937;BMP180;4503;47.810;13.072;2022-08-20T07:15:09;96644.00;;;22.30
8937;BMP180;4503;47.810;13.072;2022-08-20T07:17:36;96637.00;;;22.30
8937;BMP180;4503;47.810;13.072;2022-08-20T07:20:13;96640.00;;;22.20
8937;BMP180;4503;47.810;13.072;2022-08-20T07:22:40;96631.00;;;22.20
8937;BMP180;4503;47.810;13.072;2022-08-20T07:25:10;96644.00;;;22.20
8937;BMP180;4503;47.810;13.072;2022-08-20T07:27:38;96651.00;;;22.10
8937;BMP180;4503;47.810;13.072;2022-08-20T07:30:08;96652.00;;;22.10
8937;BMP180;4503;47.810;13.072;2022-08-20T07:32:53;96651.00;;;22.10
8937;BMP180;4503;47.810;13.072;2022-08-20T07:35:19;96660.00;;;22.00
8937;BMP180;4503;47.810;13.072;2022-08-20T07:37:48;96657.00;;;22.00
8937;BMP180;4503;47.810;13.072;2022-08-20T07:40:28;96655.00;;;22.00
8937;BMP180;4503;47.810;13.072;2022-08-20T07:42:57;96660.00;;;22.00
8937;BMP180;4503;47.810;13.072;2022-08-20T07:45:26;96661.00;;;22.00
8937;BMP180;4503;47.810;13.072;2022-08-20T07:47:52;96660.00;;;22.10
8937;BMP180;4503;47.810;13.072;2022-08-20T07:50:23;96674.00;;;22.10
8937;BMP180;4503;47.810;13.072;2022-08-20T07:52:50;96671.00;;;22.20
8937;BMP180;4503;47.810;13.072;2022-08-20T07:55:20;96680.00;;;22.30
8937;BMP180;4503;47.810;13.072;2022-08-20T07:57:49;96677.00;;;22.40
8937;BMP180;4503;47.810;13.072;2022-08-20T08:00:18;96682.00;;;22.50
8937;BMP180;4503;47.810;13.072;2022-08-20T08:02:44;96679.00;;;22.70
8937;BMP180;4503;47.810;13.072;2022-08-20T08:05:11;96684.00;;;22.80
8937;BMP180;4503;47.810;13.072;2022-08-20T08:07:38;96681.00;;;22.90
8937;BMP180;4503;47.810;13.072;2022-08-20T08:10:08;96686.00;;;23.10
8937;BMP180;4503;47.810;13.072;2022-08-20T08:12:41;96687.00;;;23.20
8937;BMP180;4503;47.810;13.072;2022-08-20T08:15:15;96687.00;;;23.30
8937;BMP180;4503;47.810;13.072;2022-08-20T08:17:45;96690.00;;;23.30
8937;BMP180;4503;47.810;13.072;2022-08-20T08:20:14;96682.00;;;23.50
8937;BMP180;4503;47.810;13.072;2022-08-20T08:22:42;96686.00;;;23.60
8937;BMP180;4503;47.810;13.072;2022-08-20T08:25:13;96688.00;;;23.60
8937;BMP180;4503;47.810;13.072;2022-08-20T08:27:42;96683.00;;;23.70
8937;BMP180;4503;47.810;13.072;2022-08-20T08:30:12;96685.00;;;23.80
8937;BMP180;4503;47.810;13.072;2022-08-20T08:32:39;96684.00;;;23.90
8937;BMP180;4503;47.810;13.072;2022-08-20T08:35:27;96685.00;;;23.90
8937;BMP180;4503;47.810;13.072;2022-08-20T08:37:56;96686.00;;;24.00
8937;BMP180;4503;47.810;13.072;2022-08-20T08:40:23;96691.00;;;24.10
8937;BMP180;4503;47.810;13.072;2022-08-20T08:42:53;96685.00;;;24.20
8937;BMP180;4503;47.810;13.072;2022-08-20T08:45:30;96671.00;;;24.30
8937;BMP180;4503;47.810;13.072;2022-08-20T08:47:59;96687.00;;;24.30
8937;BMP180;4503;47.810;13.072;2022-08-20T08:50:31;96679.00;;;24.30
8937;BMP180;4503;47.810;13.072;2022-08-20T08:53:01;96680.00;;;24.30
8937;BMP180;4503;47.810;13.072;2022-08-20T08:55:29;96679.00;;;24.20
8937;BMP180;4503;47.810;13.072;2022-08-20T08:58:02;96683.00;;;24.20
8937;BMP180;4503;47.810;13.072;2022-08-20T09:00:29;96671.00;;;24.20
8937;BMP180;4503;47.810;13.072;2022-08-20T09:03:07;96681.00;;;24.10
8937;BMP180;4503;47.810;13.072;2022-08-20T09:05:52;96678.00;;;24.10
8937;BMP180;4503;47.810;13.072;2022-08-20T09:08:25;96685.00;;;24.00
8937;BMP180;4503;47.810;13.072;2022-08-20T09:10:52;96687.00;;;24.00
8937;BMP180;4503;47.810;13.072;2022-08-20T09:13:18;96687.00;;;24.10
8937;BMP180;4503;47.810;13.072;2022-08-20T09:15:44;96686.00;;;24.10
8937;BMP180;4503;47.810;13.072;2022-08-20T09:18:11;96690.00;;;24.10
8937;BMP180;4503;47.810;13.072;2022-08-20T09:20:37;96688.00;;;24.10
8937;BMP180;4503;47.810;13.072;2022-08-20T09:23:06;96689.00;;;24.10
8937;BMP180;4503;47.810;13.072;2022-08-20T09:33:00;96702.00;;;24.00
8937;BMP180;4503;47.810;13.072;2022-08-20T09:42:53;96705.00;;;24.10
8937;BMP180;4503;47.810;13.072;2022-08-20T09:45:20;96700.00;;;24.20
8937;BMP180;4503;47.810;13.072;2022-08-20T09:47:46;96705.00;;;24.30
8937;BMP180;4503;47.810;13.072;2022-08-20T09:50:12;96704.00;;;24.30
8937;BMP180;4503;47.810;13.072;2022-08-20T09:52:45;96705.00;;;24.40
8937;BMP180;4503;47.810;13.072;2022-08-20T09:55:40;96709.00;;;24.40
8937;BMP180;4503;47.810;13.072;2022-08-20T10:00:51;96707.00;;;24.40
8937;BMP180;4503;47.810;13.072;2022-08-20T10:03:17;96711.00;;;24.50
8937;BMP180;4503;47.810;13.072;2022-08-20T10:05:44;96709.00;;;24.50
8937;BMP180;4503;47.810;13.072;2022-08-20T10:08:11;96710.00;;;24.50
8937;BMP180;4503;47.810;13.072;2022-08-20T10:10:38;96707.00;;;24.50
8937;BMP180;4503;47.810;13.072;2022-08-20T10:13:04;96712.00;;;24.50
8937;BMP180;4503;47.810;13.072;2022-08-20T10:15:31;96720.00;;;24.40
8937;BMP180;4503;47.810;13.072;2022-08-20T10:17:57;96723.00;;;24.30
8937;BMP180;4503;47.810;13.072;2022-08-20T10:20:24;96731.00;;;24.20
8937;BMP180;4503;47.810;13.072;2022-08-20T10:22:50;96731.00;;;24.20
8937;BMP180;4503;47.810;13.072;2022-08-20T10:25:17;96733.00;;;24.20
8937;BMP180;4503;47.810;13.072;2022-08-20T10:27:43;96731.00;;;24.10
8937;BMP180;4503;47.810;13.072;2022-08-20T10:30:10;96735.00;;;24.20
8937;BMP180;4503;47.810;13.072;2022-08-20T10:32:36;96725.00;;;24.30
8937;BMP180;4503;47.810;13.072;2022-08-20T10:35:03;96731.00;;;24.40
8937;BMP180;4503;47.810;13.072;2022-08-20T10:37:29;96731.00;;;24.40
8937;BMP180;4503;47.810;13.072;2022-08-20T10:39:55;96734.00;;;24.50
8937;BMP180;4503;47.810;13.072;2022-08-20T10:42:22;96732.00;;;24.50
8937;BMP180;4503;47.810;13.072;2022-08-20T10:44:48;96739.00;;;24.50
8937;BMP180;4503;47.810;13.072;2022-08-20T10:47:19;96741.00;;;24.50
8937;BMP180;4503;47.810;13.072;2022-08-20T10:49:48;96743.00;;;24.60
8937;BMP180;4503;47.810;13.072;2022-08-20T10:52:14;96743.00;;;24.60
8937;BMP180;4503;47.810;13.072;2022-08-20T10:54:40;96752.00;;;24.50
8937;BMP180;4503;47.810;13.072;2022-08-20T10:57:24;96749.00;;;24.50
8937;BMP180;4503;47.810;13.072;2022-08-20T10:59:53;96760.00;;;24.40
8937;BMP180;4503;47.810;13.072;2022-08-20T11:02:20;96757.00;;;24.30
8937;BMP180;4503;47.810;13.072;2022-08-20T11:12:34;96749.00;;;24.10
8937;BMP180;4503;47.810;13.072;2022-08-20T11:15:03;96752.00;;;24.10
8937;BMP180;4503;47.810;13.072;2022-08-20T11:17:34;96751.00;;;24.10
8937;BMP180;4503;47.810;13.072;2022-08-20T11:20:01;96747.00;;;24.00
8937;BMP180;4503;47.810;13.072;2022-08-20T11:22:29;96760.00;;;23.90
8937;BMP180;4503;47.810;13.072;2022-08-20T11:24:55;96755.00;;;24.00
8937;BMP180;4503;47.810;13.072;2022-08-20T11:27:30;96755.00;;;24.00
8937;BMP180;4503;47.810;13.072;2022-08-20T11:29:57;96750.00;;;24.00
8937;BMP180;4503;47.810;13.072;2022-08-20T11:32:24;96739.00;;;24.00
8937;BMP180;4503;47.810;13.072;2022-08-20T11:34:51;96750.00;;;23.90
8937;BMP180;4503;47.810;13.072;2022-08-20T11:37:20;96746.00;;;23.90
8937;BMP180;4503;47.810;13.072;2022-08-20T11:39:47;96748.00;;;23.80
8937;BMP180;4503;47.810;13.072;2022-08-20T11:42:13;96742.00;;;23.80
8937;BMP180;4503;47.810;13.072;2022-08-20T11:44:39;96741.00;;;23.80
8937;BMP180;4503;47.810;13.072;2022-08-20T11:47:07;96739.00;;;23.90
8937;BMP180;4503;47.810;13.072;2022-08-20T11:49:36;96743.00;;;23.90
8937;BMP180;4503;47.810;13.072;2022-08-20T11:52:03;96744.00;;;23.90
8937;BMP180;4503;47.810;13.072;2022-08-20T11:54:29;96745.00;;;23.90
8937;BMP180;4503;47.810;13.072;2022-08-20T11:56:57;96749.00;;;23.80
8937;BMP180;4503;47.810;13.072;2022-08-20T11:59:25;96759.00;;;23.80
8937;BMP180;4503;47.810;13.072;2022-08-20T12:01:52;96757.00;;;23.80
8937;BMP180;4503;47.810;13.072;2022-08-20T12:04:20;96760.00;;;23.90
8937;BMP180;4503;47.810;13.072;2022-08-20T12:06:46;96752.00;;;23.90
8937;BMP180;4503;47.810;13.072;2022-08-20T12:09:13;96758.00;;;23.90
8937;BMP180;4503;47.810;13.072;2022-08-20T12:12:35;96766.00;;;23.90
8937;BMP180;4503;47.810;13.072;2022-08-20T12:15:01;96782.00;;;23.90
8937;BMP180;4503;47.810;13.072;2022-08-20T12:17:29;96770.00;;;23.70
8937;BMP180;4503;47.810;13.072;2022-08-20T12:20:00;96757.00;;;23.50
8937;BMP180;4503;47.810;13.072;2022-08-20T12:22:27;96750.00;;;23.40
8937;BMP180;4503;47.810;13.072;2022-08-20T12:24:54;96747.00;;;23.40
8937;BMP180;4503;47.810;13.072;2022-08-20T12:27:27;96753.00;;;23.50
8937;BMP180;4503;47.810;13.072;2022-08-20T12:29:57;96756.00;;;23.60
8937;BMP180;4503;47.810;13.072;2022-08-20T12:32:26;96757.00;;;23.70
8937;BMP180;4503;47.810;13.072;2022-08-20T12:34:53;96748.00;;;23.90
8937;BMP180;4503;47.810;13.072;2022-08-20T12:37:26;96747.00;;;24.20
8937;BMP180;4503;47.810;13.072;2022-08-20T12:39:57;96744.00;;;24.50
8937;BMP180;4503;47.810;13.072;2022-08-20T12:42:24;96748.00;;;24.60
8937;BMP180;4503;47.810;13.072;2022-08-20T12:44:50;96741.00;;;24.80
8937;BMP180;4503;47.810;13.072;2022-08-20T12:47:30;96744.00;;;25.00
8937;BMP180;4503;47.810;13.072;2022-08-20T12:50:20;96741.00;;;25.20
8937;BMP180;4503;47.810;13.072;2022-08-20T12:52:47;96739.00;;;25.40
8937;BMP180;4503;47.810;13.072;2022-08-20T12:55:17;96725.00;;;25.50
8937;BMP180;4503;47.810;13.072;2022-08-20T12:57:50;96728.00;;;25.80
8937;BMP180;4503;47.810;13.072;2022-08-20T13:00:23;96729.00;;;25.90
8937;BMP180;4503;47.810;13.072;2022-08-20T13:02:52;96727.00;;;26.00
8937;BMP180;4503;47.810;13.072;2022-08-20T13:12:46;96736.00;;;26.30
8937;BMP180;4503;47.810;13.072;2022-08-20T13:15:12;96733.00;;;26.40
8937;BMP180;4503;47.810;13.072;2022-08-20T13:17:39;96734.00;;;26.50
8937;BMP180;4503;47.810;13.072;2022-08-20T13:23:46;96728.00;;;26.40
8937;BMP180;4503;47.810;13.072;2022-08-20T13:26:12;96741.00;;;26.40
8937;BMP180;4503;47.810;13.072;2022-08-20T13:28:38;96731.00;;;26.30
8937;BMP180;4503;47.810;13.072;2022-08-20T13:31:09;96736.00;;;26.30
8937;BMP180;4503;47.810;13.072;2022-08-20T13:33:54;96726.00;;;26.20
8937;BMP180;4503;47.810;13.072;2022-08-20T13:36:20;96733.00;;;26.20
8937;BMP180;4503;47.810;13.072;2022-08-20T13:38:46;96729.00;;;26.20
8937;BMP180;4503;47.810;13.072;2022-08-20T13:41:12;96735.00;;;26.20
8937;BMP180;4503;47.810;13.072;2022-08-20T13:43:38;96727.00;;;26.30
8937;BMP180;4503;47.810;13.072;2022-08-20T13:46:04;96725.00;;;26.30
8937;BMP180;4503;47.810;13.072;2022-08-20T13:48:32;96724.00;;;26.40
8937;BMP180;4503;47.810;13.072;2022-08-20T13:50:58;96725.00;;;26.40
8937;BMP180;4503;47.810;13.072;2022-08-20T13:53:24;96725.00;;;26.20
8937;BMP180;4503;47.810;13.072;2022-08-20T13:55:51;96724.00;;;26.10
8937;BMP180;4503;47.810;13.072;2022-08-20T13:58:18;96725.00;;;26.00
8937;BMP180;4503;47.810;13.072;2022-08-20T14:00:45;96721.00;;;26.00
8937;BMP180;4503;47.810;13.072;2022-08-20T14:03:11;96722.00;;;25.90
8937;BMP180;4503;47.810;13.072;2022-08-20T14:05:38;96712.00;;;25.90
8937;BMP180;4503;47.810;13.072;2022-08-20T14:08:17;96711.00;;;25.90
8937;BMP180;4503;47.810;13.072;2022-08-20T14:10:45;96719.00;;;25.90
8937;BMP180;4503;47.810;13.072;2022-08-20T14:13:17;96714.00;;;25.80
8937;BMP180;4503;47.810;13.072;2022-08-20T14:15:44;96713.00;;;25.80
8937;BMP180;4503;47.810;13.072;2022-08-20T14:18:11;96722.00;;;25.80
8937;BMP180;4503;47.810;13.072;2022-08-20T14:20:40;96716.00;;;25.70
8937;BMP180;4503;47.810;13.072;2022-08-20T14:23:06;96709.00;;;25.70
8937;BMP180;4503;47.810;13.072;2022-08-20T14:25:33;96711.00;;;25.70
8937;BMP180;4503;47.810;13.072;2022-08-20T14:31:39;96725.00;;;25.60
8937;BMP180;4503;47.810;13.072;2022-08-20T14:34:05;96722.00;;;25.70
8937;BMP180;4503;47.810;13.072;2022-08-20T14:36:31;96711.00;;;25.70
8937;BMP180;4503;47.810;13.072;2022-08-20T14:38:57;96708.00;;;25.70
8937;BMP180;4503;47.810;13.072;2022-08-20T14:41:23;96716.00;;;25.70
8937;BMP180;4503;47.810;13.072;2022-08-20T14:43:49;96701.00;;;25.70
8937;BMP180;4503;47.810;13.072;2022-08-20T14:46:15;96712.00;;;25.70
8937;BMP180;4503;47.810;13.072;2022-08-20T14:48:41;96710.00;;;25.70
8937;BMP180;4503;47.810;13.072;2022-08-20T14:51:07;96705.00;;;25.70
8937;BMP180;4503;47.810;13.072;2022-08-20T14:53:34;96702.00;;;25.70
8937;BMP180;4503;47.810;13.072;2022-08-20T14:56:01;96698.00;;;25.70
8937;BMP180;4503;47.810;13.072;2022-08-20T14:58:27;96697.00;;;25.70
8937;BMP180;4503;47.810;13.072;2022-08-20T15:00:53;96701.00;;;25.60
8937;BMP180;4503;47.810;13.072;2022-08-20T15:03:19;96700.00;;;25.70
8937;BMP180;4503;47.810;13.072;2022-08-20T15:05:48;96692.00;;;25.70
8937;BMP180;4503;47.810;13.072;2022-08-20T15:12:35;96694.00;;;25.70
8937;BMP180;4503;47.810;13.072;2022-08-20T15:15:04;96702.00;;;25.60
8937;BMP180;4503;47.810;13.072;2022-08-20T15:17:32;96702.00;;;25.70
8937;BMP180;4503;47.810;13.072;2022-08-20T15:20:05;96706.00;;;25.70
8937;BMP180;4503;47.810;13.072;2022-08-20T15:22:35;96702.00;;;25.60
8937;BMP180;4503;47.810;13.072;2022-08-20T15:25:01;96701.00;;;25.60
8937;BMP180;4503;47.810;13.072;2022-08-20T15:27:27;96703.00;;;25.50
8937;BMP180;4503;47.810;13.072;2022-08-20T15:29:53;96706.00;;;25.40